createdAt,value
2018-05-27T00:02:20.279Z,44.43
2018-05-27T00:04:51.374Z,44.38
2018-05-27T00:07:23.626Z,44.67
2018-05-27T00:09:54.639Z,44.82
2018-05-27T00:12:25.143Z,44.98
2018-05-27T00:14:56.778Z,44.81
2018-05-27T00:17:28.557Z,44.81
2018-05-27T00:19:59.057Z,44.89
2018-05-27T00:22:30.426Z,45.36
2018-05-27T00:25:02.817Z,45.51
2018-05-27T00:27:33.330Z,45.78
2018-05-27T00:30:05.190Z,45.89
2018-05-27T00:32:35.957Z,45.88
2018-05-27T00:35:06.498Z,46.02
2018-05-27T00:37:37.357Z,45.89
2018-05-27T00:40:07.846Z,45.93
2018-05-27T00:42:38.370Z,45.88
2018-05-27T00:45:08.880Z,46.01
2018-05-27T00:47:39.378Z,46.25
2018-05-27T00:50:10.061Z,46.38
2018-05-27T00:52:40.578Z,46.43
2018-05-27T00:55:11.097Z,46.57
2018-05-27T00:57:41.472Z,46.49
2018-05-27T01:00:15.103Z,46.26
2018-05-27T01:02:45.948Z,46.08
2018-05-27T01:05:16.522Z,45.83
2018-05-27T01:07:47.143Z,45.69
2018-05-27T01:10:17.743Z,45.51
2018-05-27T01:12:49.433Z,45.32
2018-05-27T01:15:19.981Z,45.17
2018-05-27T01:17:51.078Z,45.15
2018-05-27T01:20:21.821Z,45.11
2018-05-27T01:22:52.597Z,44.93
2018-05-27T01:25:22.893Z,44.78
2018-05-27T01:27:53.497Z,44.61
2018-05-27T01:30:24.111Z,44.65
2018-05-27T01:32:55.146Z,44.87
2018-05-27T01:35:25.969Z,44.74
2018-05-27T01:37:56.794Z,44.64
2018-05-27T01:40:27.450Z,44.58
2018-05-27T01:42:57.879Z,44.69
2018-05-27T01:45:28.280Z,44.44
2018-05-27T01:47:59.303Z,44.26
2018-05-27T01:50:29.826Z,44.49
2018-05-27T01:53:00.293Z,44.64
2018-05-27T01:55:31.306Z,44.75
2018-05-27T01:58:01.907Z,44.38
2018-05-27T02:00:33.207Z,44.46
2018-05-27T02:03:03.637Z,44.66
2018-05-27T02:05:33.992Z,44.70
2018-05-27T02:08:05.015Z,44.56
2018-05-27T02:10:35.570Z,44.26
2018-05-27T02:13:06.075Z,44.29
2018-05-27T02:15:37.051Z,44.30
2018-05-27T02:18:07.963Z,44.14
2018-05-27T02:20:38.500Z,43.90
2018-05-27T02:23:09.228Z,43.54
2018-05-27T02:25:39.766Z,43.57
2018-05-27T02:28:10.723Z,43.52
2018-05-27T02:30:41.207Z,43.44
2018-05-27T02:33:11.746Z,43.48
2018-05-27T02:35:42.277Z,43.63
2018-05-27T02:38:12.848Z,43.59
2018-05-27T02:40:43.643Z,43.62
2018-05-27T02:43:14.299Z,43.64
2018-05-27T02:45:44.579Z,43.59
2018-05-27T02:48:15.543Z,43.67
2018-05-27T02:50:46.133Z,43.76
2018-05-27T02:53:16.812Z,43.83
2018-05-27T02:55:47.395Z,43.55
2018-05-27T02:58:17.896Z,43.41
2018-05-27T03:00:48.859Z,43.23
2018-05-27T03:03:19.422Z,42.86
2018-05-27T03:05:50.195Z,42.82
2018-05-27T03:08:21.019Z,43.13
2018-05-27T03:10:51.308Z,43.06
2018-05-27T03:13:21.912Z,42.95
2018-05-27T03:15:53.261Z,42.87
2018-05-27T03:18:23.843Z,42.95
2018-05-27T03:20:55.712Z,43.34
2018-05-27T03:23:26.271Z,43.18
2018-05-27T03:25:56.594Z,43.20
2018-05-27T03:28:27.140Z,43.05
2018-05-27T03:30:57.764Z,42.93
2018-05-27T03:33:28.529Z,43.04
2018-05-27T03:35:59.063Z,42.97
2018-05-27T03:38:29.447Z,42.56
2018-05-27T03:40:59.946Z,42.21
2018-05-27T03:43:30.451Z,42.41
2018-05-27T03:46:01.452Z,42.59
2018-05-27T03:48:32.030Z,42.43
2018-05-27T03:51:02.574Z,42.40
2018-05-27T03:53:33.399Z,42.19
2018-05-27T03:56:03.935Z,42.46
2018-05-27T03:58:35.113Z,42.65
2018-05-27T04:01:05.640Z,42.47
2018-05-27T04:03:36.948Z,42.18
2018-05-27T04:09:24.047Z,41.92
2018-05-27T04:11:54.862Z,41.24
2018-05-27T04:14:26.116Z,41.06
2018-05-27T04:16:56.619Z,40.72
2018-05-27T04:19:27.234Z,40.00
2018-05-27T04:21:58.619Z,39.72
2018-05-27T04:24:29.583Z,39.35
2018-05-27T04:27:00.131Z,39.19
2018-05-27T04:29:30.783Z,39.28
2018-05-27T04:32:01.740Z,39.57
2018-05-27T04:34:32.320Z,39.74
2018-05-27T04:37:02.882Z,40.11
2018-05-27T04:39:33.848Z,40.04
2018-05-27T04:42:04.203Z,40.10
2018-05-27T04:44:35.330Z,40.72
2018-05-27T04:47:06.187Z,40.84
2018-05-27T04:49:37.737Z,40.67
2018-05-27T04:52:08.363Z,40.26
2018-05-27T04:54:39.319Z,40.63
2018-05-27T04:57:09.813Z,41.55
2018-05-27T04:59:40.367Z,41.94
2018-05-27T05:02:11.308Z,42.21
2018-05-27T05:04:41.906Z,42.17
2018-05-27T05:07:12.524Z,41.96
2018-05-27T05:09:43.095Z,42.02
2018-05-27T05:12:13.679Z,42.00
2018-05-27T05:14:44.187Z,42.11
2018-05-27T05:17:14.818Z,42.11
2018-05-27T05:19:46.641Z,42.08
2018-05-27T05:22:17.247Z,41.76
2018-05-27T05:24:47.738Z,41.29
2018-05-27T05:27:18.667Z,40.87
2018-05-27T05:29:49.243Z,40.75
2018-05-27T05:32:19.819Z,40.75
2018-05-27T05:34:50.745Z,40.67
2018-05-27T05:37:21.233Z,40.41
2018-05-27T05:39:51.794Z,40.03
2018-05-27T05:42:22.052Z,40.03
2018-05-27T05:44:53.932Z,39.85
2018-05-27T05:47:24.488Z,39.91
2018-05-27T05:49:54.966Z,40.09
2018-05-27T05:52:25.459Z,40.09
2018-05-27T05:54:55.967Z,40.16
2018-05-27T05:57:27.235Z,40.36
2018-05-27T05:59:57.762Z,40.63
2018-05-27T06:02:28.611Z,40.49
2018-05-27T06:04:59.164Z,40.79
2018-05-27T06:07:29.752Z,41.12
2018-05-27T06:10:00.609Z,41.08
2018-05-27T06:12:31.199Z,41.10
2018-05-27T06:15:02.848Z,39.78
2018-05-27T06:17:34.031Z,38.68
2018-05-27T06:20:04.575Z,36.22
2018-05-27T06:22:36.291Z,35.04
2018-05-27T06:25:06.807Z,33.55
2018-05-27T06:27:38.123Z,33.71
2018-05-27T06:30:08.915Z,34.41
2018-05-27T06:32:39.442Z,34.34
2018-05-27T06:35:10.039Z,34.23
2018-05-27T06:37:42.019Z,33.89
2018-05-27T06:40:12.491Z,32.81
2018-05-27T06:42:43.090Z,31.54
2018-05-27T06:45:15.563Z,30.69
2018-05-27T06:47:46.147Z,29.85
2018-05-27T06:50:16.803Z,30.10
2018-05-27T06:52:47.385Z,29.48
2018-05-27T06:55:17.934Z,29.90
2018-05-27T06:57:48.812Z,29.37
2018-05-27T07:00:19.360Z,28.57
2018-05-27T07:02:50.061Z,28.90
2018-05-27T07:05:21.064Z,28.92
2018-05-27T07:07:51.635Z,28.06
2018-05-27T07:10:21.891Z,27.77
2018-05-27T07:12:52.243Z,27.24
2018-05-27T07:15:22.840Z,25.62
2018-05-27T07:17:53.675Z,25.59
2018-05-27T07:20:24.223Z,24.73
2018-05-27T07:22:54.835Z,24.59
2018-05-27T07:25:25.339Z,25.14
2018-05-27T07:27:55.939Z,24.92
2018-05-27T07:30:26.859Z,24.46
2018-05-27T07:32:57.415Z,24.31
2018-05-27T07:35:28.013Z,23.95
2018-05-27T07:37:58.636Z,24.02
2018-05-27T07:40:28.939Z,23.81
2018-05-27T07:43:00.518Z,23.65
2018-05-27T07:45:30.723Z,23.20
2018-05-27T07:48:01.432Z,23.25
2018-05-27T07:50:32.302Z,22.93
2018-05-27T07:53:02.998Z,22.76
2018-05-27T07:55:33.752Z,22.54
2018-05-27T07:58:04.854Z,22.61
2018-05-27T08:00:35.117Z,22.37
2018-05-27T08:03:05.965Z,22.79
2018-05-27T08:05:37.363Z,22.76
2018-05-27T08:08:07.915Z,23.09
2018-05-27T08:10:39.171Z,23.17
2018-05-27T08:13:09.992Z,23.03
2018-05-27T08:15:40.287Z,22.47
2018-05-27T08:18:10.974Z,22.52
2018-05-27T08:20:41.267Z,23.00
2018-05-27T08:23:12.238Z,23.20
2018-05-27T08:25:43.344Z,23.35
2018-05-27T08:28:13.917Z,23.03
2018-05-27T08:30:44.209Z,22.93
2018-05-27T08:33:14.830Z,23.11
2018-05-27T08:35:45.406Z,23.24
2018-05-27T08:38:15.696Z,23.26
2018-05-27T08:40:46.006Z,23.39
2018-05-27T08:43:16.807Z,23.61
2018-05-27T08:45:47.388Z,23.52
2018-05-27T08:48:17.878Z,22.89
2018-05-27T08:50:49.095Z,21.88
2018-05-27T08:53:19.645Z,23.01
2018-05-27T08:55:50.174Z,23.02
2018-05-27T08:58:20.427Z,22.96
2018-05-27T09:00:51.998Z,23.46
2018-05-27T09:03:22.346Z,23.12
2018-05-27T09:05:52.923Z,22.63
2018-05-27T09:08:23.873Z,22.95
2018-05-27T09:10:54.555Z,23.43
2018-05-27T09:13:24.818Z,23.65
2018-05-27T09:15:55.505Z,23.38
2018-05-27T09:18:25.718Z,23.33
2018-05-27T09:20:56.044Z,23.09
2018-05-27T09:23:26.260Z,23.01
2018-05-27T09:25:56.504Z,23.29
2018-05-27T09:28:27.072Z,23.30
2018-05-27T09:30:57.259Z,23.68
2018-05-27T09:33:27.678Z,23.22
2018-05-27T09:35:59.662Z,23.11
2018-05-27T09:38:29.878Z,22.64
2018-05-27T09:41:00.475Z,22.72
2018-05-27T09:43:30.683Z,22.99
2018-05-27T09:46:01.903Z,22.56
2018-05-27T09:48:32.441Z,22.20
2018-05-27T09:51:02.742Z,22.44
2018-05-27T09:53:33.188Z,22.87
2018-05-27T09:56:04.367Z,22.42
2018-05-27T09:58:34.599Z,21.83
2018-05-27T10:01:05.466Z,21.75
2018-05-27T10:03:35.754Z,21.81
2018-05-27T10:06:09.235Z,21.52
2018-05-27T10:08:39.521Z,20.27
2018-05-27T10:11:09.746Z,20.28
2018-05-27T10:13:40.356Z,19.79
2018-05-27T10:16:10.643Z,19.51
2018-05-27T10:18:41.044Z,19.00
2018-05-27T10:21:11.534Z,18.86
2018-05-27T10:23:41.879Z,18.74
2018-05-27T10:26:14.931Z,18.70
2018-05-27T10:28:45.225Z,18.15
2018-05-27T10:31:15.795Z,18.31
2018-05-27T10:33:47.621Z,18.50
2018-05-27T10:36:18.195Z,18.97
2018-05-27T10:38:48.811Z,18.67
2018-05-27T10:41:19.144Z,17.69
2018-05-27T10:43:49.412Z,17.97
2018-05-27T10:46:20.945Z,18.58
2018-05-27T10:48:51.159Z,18.49
2018-05-27T10:51:21.343Z,19.12
2018-05-27T10:53:54.203Z,18.70
2018-05-27T10:56:26.555Z,18.85
2018-05-27T10:58:56.952Z,18.58
2018-05-27T11:01:29.198Z,18.04
2018-05-27T11:03:59.788Z,17.72
2018-05-27T11:06:31.207Z,17.36
2018-05-27T11:09:02.349Z,16.87
2018-05-27T11:11:33.548Z,16.39
2018-05-27T11:14:05.119Z,16.87
2018-05-27T11:16:37.173Z,17.52
2018-05-27T11:19:09.190Z,17.26
2018-05-27T11:21:41.253Z,16.97
2018-05-27T11:24:12.952Z,16.71
2018-05-27T11:26:45.719Z,16.44
2018-05-27T11:29:16.059Z,16.33
2018-05-27T11:31:48.523Z,16.38
2018-05-27T11:34:18.735Z,16.47
2018-05-27T11:36:51.850Z,16.36
2018-05-27T11:39:23.035Z,15.94
2018-05-27T11:41:55.156Z,16.19
2018-05-27T11:44:26.593Z,16.42
2018-05-27T11:46:58.987Z,16.35
2018-05-27T11:49:31.635Z,16.26
2018-05-27T11:52:02.510Z,15.67
2018-05-27T11:54:34.864Z,15.59
2018-05-27T11:57:06.867Z,15.01
2018-05-27T11:59:38.486Z,14.87
2018-05-27T12:02:11.018Z,15.34
2018-05-27T12:04:43.128Z,16.05
2018-05-27T12:07:14.502Z,16.24
2018-05-27T12:09:46.609Z,15.80
2018-05-27T12:12:19.679Z,15.40
2018-05-27T12:14:50.889Z,15.11
2018-05-27T12:17:23.906Z,14.95
2018-05-27T12:19:56.294Z,15.39
2018-05-27T12:22:27.661Z,14.99
2018-05-27T12:24:59.854Z,15.17
2018-05-27T12:27:31.000Z,15.90
2018-05-27T12:30:04.607Z,16.17
2018-05-27T12:32:36.971Z,16.81
2018-05-27T12:35:09.147Z,17.43
2018-05-27T12:37:41.187Z,17.34
2018-05-27T12:40:13.766Z,17.29
2018-05-27T12:45:16.071Z,16.77
2018-05-27T12:47:47.212Z,17.15
2018-05-27T12:50:19.324Z,17.19
2018-05-27T12:52:50.773Z,17.45
2018-05-27T12:55:23.191Z,17.72
2018-05-27T12:57:55.371Z,17.80
2018-05-27T13:00:27.787Z,17.80
2018-05-27T13:02:59.896Z,17.76
2018-05-27T13:05:32.660Z,17.77
2018-05-27T13:08:05.070Z,17.02
2018-05-27T13:10:36.483Z,16.85
2018-05-27T13:13:09.916Z,16.64
2018-05-27T13:15:42.078Z,16.54
2018-05-27T13:18:13.827Z,16.25
2018-05-27T13:20:44.372Z,16.06
2018-05-27T13:23:16.416Z,16.79
2018-05-27T13:25:50.863Z,17.44
2018-05-27T13:28:22.012Z,17.32
2018-05-27T13:30:54.154Z,16.77
2018-05-27T13:33:25.975Z,16.64
2018-05-27T13:35:58.140Z,16.29
2018-05-27T13:38:30.527Z,16.43
2018-05-27T13:41:01.784Z,16.34
2018-05-27T13:43:34.168Z,15.60
2018-05-27T13:46:07.407Z,15.53
2018-05-27T13:48:38.645Z,15.61
2018-05-27T13:51:11.763Z,16.17
2018-05-27T13:53:44.119Z,16.50
2018-05-27T13:56:15.263Z,16.76
2018-05-27T13:58:46.481Z,16.43
2018-05-27T14:01:17.667Z,16.40
2018-05-27T14:03:49.490Z,16.62
2018-05-27T14:06:20.933Z,16.86
2018-05-27T14:08:52.419Z,16.79
2018-05-27T14:11:23.866Z,16.83
2018-05-27T14:13:54.986Z,16.95
2018-05-27T14:16:26.341Z,16.83
2018-05-27T14:18:57.739Z,16.84
2018-05-27T14:21:28.921Z,17.13
2018-05-27T14:24:00.503Z,17.37
2018-05-27T14:26:31.911Z,16.83
2018-05-27T14:29:03.682Z,17.02
2018-05-27T14:31:34.745Z,17.34
2018-05-27T14:34:06.587Z,17.68
2018-05-27T14:36:39.812Z,17.81
2018-05-27T14:39:10.950Z,17.67
2018-05-27T14:41:43.408Z,17.66
2018-05-27T14:44:15.421Z,17.38
2018-05-27T14:46:47.060Z,17.78
2018-05-27T14:49:19.219Z,17.67
2018-05-27T14:51:52.338Z,17.94
2018-05-27T14:54:24.385Z,18.17
2018-05-27T14:56:55.916Z,18.71
2018-05-27T14:59:28.489Z,18.13
2018-05-27T15:01:59.588Z,18.36
2018-05-27T15:04:31.072Z,19.10
2018-05-27T15:07:03.143Z,19.41
2018-05-27T15:09:35.051Z,19.94
2018-05-27T15:12:07.184Z,20.67
2018-05-27T15:14:39.750Z,21.06
2018-05-27T15:17:12.399Z,20.99
2018-05-27T15:19:43.807Z,21.47
2018-05-27T15:22:14.341Z,21.20
2018-05-27T15:24:45.909Z,21.61
2018-05-27T15:27:17.978Z,21.50
2018-05-27T15:29:50.578Z,21.62
2018-05-27T15:32:22.246Z,21.41
2018-05-27T15:34:54.575Z,21.74
2018-05-27T15:37:26.629Z,22.31
2018-05-27T15:39:58.771Z,22.90
2018-05-27T15:42:30.943Z,23.05
2018-05-27T15:45:05.169Z,23.34
2018-05-27T15:47:35.700Z,24.35
2018-05-27T15:50:06.719Z,25.38
2018-05-27T15:52:39.871Z,26.40
2018-05-27T15:55:10.970Z,27.19
2018-05-27T15:57:43.016Z,27.84
2018-05-27T16:00:16.312Z,28.26
2018-05-27T16:02:46.666Z,28.52
2018-05-27T16:05:17.016Z,29.11
2018-05-27T16:07:49.455Z,29.16
2018-05-27T16:10:19.758Z,29.15
2018-05-27T16:12:50.364Z,29.38
2018-05-27T16:15:22.675Z,29.42
2018-05-27T16:17:53.236Z,29.49
2018-05-27T16:20:23.447Z,29.11
2018-05-27T16:22:55.924Z,28.98
2018-05-27T16:25:28.518Z,28.89
2018-05-27T16:28:00.543Z,28.79
2018-05-27T16:30:31.835Z,28.17
2018-05-27T16:33:03.948Z,28.14
2018-05-27T16:35:36.167Z,27.87
2018-05-27T16:38:09.152Z,27.79
2018-05-27T16:40:40.634Z,27.99
2018-05-27T16:43:12.827Z,28.33
2018-05-27T16:45:44.082Z,28.40
2018-05-27T16:48:15.404Z,28.27
2018-05-27T16:50:47.458Z,28.36
2018-05-27T16:53:18.619Z,28.43
2018-05-27T16:55:50.951Z,28.39
2018-05-27T16:58:22.129Z,28.40
2018-05-27T17:00:54.360Z,28.81
2018-05-27T17:03:26.459Z,29.05
2018-05-27T17:05:58.683Z,29.37
2018-05-27T17:08:29.819Z,29.43
2018-05-27T17:11:01.113Z,29.72
2018-05-27T17:13:32.564Z,30.05
2018-05-27T17:16:03.665Z,29.70
2018-05-27T17:18:35.781Z,29.87
2018-05-27T17:21:06.005Z,29.87
2018-05-27T17:23:36.276Z,29.90
2018-05-27T17:26:06.644Z,30.59
2018-05-27T17:28:39.727Z,30.54
2018-05-27T17:31:12.047Z,30.85
2018-05-27T17:33:44.216Z,31.06
2018-05-27T17:36:17.035Z,31.51
2018-05-27T17:38:47.341Z,31.69
2018-05-27T17:41:18.714Z,31.80
2018-05-27T17:43:49.271Z,32.17
2018-05-27T17:46:20.255Z,32.54
2018-05-27T17:48:50.502Z,32.75
2018-05-27T17:51:22.504Z,33.13
2018-05-27T17:53:55.282Z,33.15
2018-05-27T17:56:27.434Z,33.09
2018-05-27T17:58:57.984Z,33.15
2018-05-27T18:01:28.291Z,33.44
2018-05-27T18:03:58.548Z,33.59
2018-05-27T18:06:29.198Z,33.81
2018-05-27T18:09:01.638Z,34.04
2018-05-27T18:11:31.956Z,33.92
2018-05-27T18:14:02.820Z,34.01
2018-05-27T18:16:33.043Z,34.01
2018-05-27T18:19:03.749Z,34.25
2018-05-27T18:21:35.379Z,34.23
2018-05-27T18:24:05.891Z,34.09
2018-05-27T18:26:36.771Z,33.57
2018-05-27T18:29:07.049Z,32.98
2018-05-27T18:31:37.383Z,32.50
2018-05-27T18:34:07.983Z,32.45
2018-05-27T18:36:38.262Z,32.49
2018-05-27T18:39:08.474Z,32.68
2018-05-27T18:41:38.829Z,32.92
2018-05-27T18:44:10.874Z,33.15
2018-05-27T18:46:41.152Z,33.19
2018-05-27T18:49:11.603Z,33.30
2018-05-27T18:51:43.258Z,33.17
2018-05-27T18:54:15.343Z,33.28
2018-05-27T18:56:45.627Z,33.41
2018-05-27T18:59:18.773Z,33.62
2018-05-27T19:01:49.269Z,33.82
2018-05-27T19:04:19.635Z,33.98
2018-05-27T19:06:50.095Z,33.88
2018-05-27T19:09:20.378Z,34.04
2018-05-27T19:11:53.979Z,34.32
2018-05-27T19:14:24.266Z,34.36
2018-05-27T19:16:54.888Z,34.75
2018-05-27T19:19:25.418Z,34.98
2018-05-27T19:21:55.740Z,35.12
2018-05-27T19:24:25.959Z,35.38
2018-05-27T19:26:56.287Z,35.64
2018-05-27T19:29:26.592Z,35.56
2018-05-27T19:31:56.845Z,35.71
2018-05-27T19:34:27.167Z,35.77
2018-05-27T19:36:57.384Z,35.74
2018-05-27T19:39:27.657Z,35.78
2018-05-27T19:41:57.884Z,35.98
2018-05-27T19:44:28.143Z,36.14
2018-05-27T19:46:58.353Z,36.53
2018-05-27T19:49:28.622Z,36.73
2018-05-27T19:51:59.018Z,37.08
2018-05-27T19:54:29.564Z,37.39
2018-05-27T19:56:59.859Z,37.63
2018-05-27T19:59:30.435Z,37.91
2018-05-27T20:02:00.556Z,38.09
2018-05-27T20:04:30.871Z,38.29
2018-05-27T20:07:01.271Z,38.49
2018-05-27T20:09:31.566Z,38.78
2018-05-27T20:12:01.906Z,38.90
2018-05-27T20:14:32.583Z,39.00
2018-05-27T20:17:02.776Z,39.11
2018-05-27T20:19:33.123Z,39.32
2018-05-27T20:22:03.450Z,39.37
2018-05-27T20:24:33.718Z,39.57
2018-05-27T20:27:04.146Z,39.59
2018-05-27T20:29:34.341Z,39.68
2018-05-27T20:32:07.588Z,39.80
2018-05-27T20:34:37.806Z,39.84
2018-05-27T20:37:08.569Z,39.84
2018-05-27T20:39:39.415Z,39.92
2018-05-27T20:42:09.679Z,39.78
2018-05-27T20:44:40.047Z,39.94
2018-05-27T20:47:10.961Z,40.01
2018-05-27T20:49:41.254Z,40.06
2018-05-27T20:52:12.794Z,40.24
2018-05-27T20:54:42.986Z,40.32
2018-05-27T20:57:13.207Z,40.49
2018-05-27T20:59:44.036Z,40.66
2018-05-27T21:02:14.209Z,40.67
2018-05-27T21:04:44.535Z,40.73
2018-05-27T21:07:15.007Z,40.80
2018-05-27T21:09:45.391Z,40.57
2018-05-27T21:12:15.623Z,40.38
2018-05-27T21:14:46.689Z,40.30
2018-05-27T21:17:16.963Z,39.80
2018-05-27T21:19:47.216Z,39.82
2018-05-27T21:22:17.877Z,39.59
2018-05-27T21:24:49.871Z,39.44
2018-05-27T21:27:21.963Z,39.42
2018-05-27T21:29:53.913Z,39.34
2018-05-27T21:32:25.031Z,39.36
2018-05-27T21:34:58.369Z,39.30
2018-05-27T21:37:30.214Z,39.47
2018-05-27T21:40:01.314Z,39.34
2018-05-27T21:42:33.683Z,38.96
2018-05-27T21:45:06.444Z,38.91
2018-05-27T21:47:38.521Z,38.59
2018-05-27T21:50:09.932Z,38.47
2018-05-27T21:52:41.120Z,38.21
2018-05-27T21:55:12.586Z,37.88
2018-05-27T21:57:43.618Z,37.80
2018-05-27T22:00:16.297Z,37.54
2018-05-27T22:02:47.381Z,37.46
2018-05-27T22:05:18.574Z,37.08
2018-05-27T22:07:49.969Z,37.10
2018-05-27T22:10:21.071Z,36.67
2018-05-27T22:12:52.370Z,36.67
2018-05-27T22:15:23.733Z,36.78
2018-05-27T22:17:54.811Z,36.52
2018-05-27T22:20:25.852Z,36.53
2018-05-27T22:22:57.866Z,36.19
2018-05-27T22:25:30.036Z,35.92
2018-05-27T22:28:02.101Z,35.71
2018-05-27T22:30:33.315Z,35.55
2018-05-27T22:33:05.572Z,35.77
2018-05-27T22:35:38.547Z,35.99
2018-05-27T22:38:10.486Z,36.04
2018-05-27T22:40:42.475Z,36.12
2018-05-27T22:43:14.569Z,36.43
2018-05-27T22:45:45.786Z,36.38
2018-05-27T22:48:16.807Z,36.21
2018-05-27T22:50:47.900Z,36.02
2018-05-27T22:53:18.939Z,36.02
2018-05-27T22:55:51.920Z,36.10
2018-05-27T22:58:23.000Z,36.00
2018-05-27T23:00:55.046Z,36.03
2018-05-27T23:03:26.550Z,35.94
2018-05-27T23:05:58.762Z,35.98
2018-05-27T23:08:32.686Z,36.36
2018-05-27T23:11:04.023Z,36.51
2018-05-27T23:13:35.863Z,36.64
2018-05-27T23:16:07.358Z,36.78
2018-05-27T23:18:39.533Z,37.08
2018-05-27T23:21:11.969Z,36.89
2018-05-27T23:23:44.759Z,36.97
2018-05-27T23:26:16.244Z,37.22
2018-05-27T23:28:47.835Z,37.67
2018-05-27T23:31:18.963Z,37.96
2018-05-27T23:33:51.211Z,38.54
2018-05-27T23:36:23.520Z,38.84
2018-05-27T23:38:56.096Z,39.00
2018-05-27T23:41:29.178Z,38.98
2018-05-27T23:44:00.691Z,39.17
2018-05-27T23:46:32.267Z,39.30
2018-05-27T23:49:03.670Z,39.19
2018-05-27T23:51:36.068Z,39.45
2018-05-27T23:54:07.427Z,39.49
2018-05-27T23:56:38.876Z,39.69
2018-05-27T23:59:10.375Z,39.89
